createdAt,value
2023-05-05T00:01:34.856Z,5.22
2023-05-05T00:04:36.673Z,5.22
2023-05-05T00:07:38.673Z,5.20
2023-05-05T00:10:40.856Z,5.12
2023-05-05T00:13:42.771Z,5.07
2023-05-05T00:16:44.866Z,5.04
2023-05-05T00:19:46.928Z,5.02
2023-05-05T00:22:48.994Z,4.97
2023-05-05T00:25:50.920Z,4.91
2023-05-05T00:28:52.657Z,4.86
2023-05-05T00:31:54.601Z,4.81
2023-05-05T00:34:56.742Z,4.78
2023-05-05T00:37:58.875Z,4.77
2023-05-05T00:41:01.003Z,4.79
2023-05-05T00:44:02.978Z,4.78
2023-05-05T00:47:05.441Z,4.75
2023-05-05T00:50:08.719Z,4.74
2023-05-05T00:53:12.076Z,4.74
2023-05-05T00:56:15.640Z,4.75
2023-05-05T00:59:17.775Z,4.75
2023-05-05T01:02:19.491Z,4.73
2023-05-05T01:05:22.904Z,4.66
2023-05-05T01:08:27.539Z,4.54
2023-05-05T01:12:19.612Z,4.48
2023-05-05T01:15:34.237Z,4.39
2023-05-05T01:18:46.383Z,4.36
2023-05-05T01:21:52.168Z,4.35
2023-05-05T01:25:25.781Z,4.30
2023-05-05T01:28:33.825Z,4.23
2023-05-05T01:32:11.338Z,4.17
2023-05-05T01:35:21.073Z,4.13
2023-05-05T01:38:26.647Z,4.09
2023-05-05T01:41:49.155Z,4.05
2023-05-05T01:44:52.463Z,4.04
2023-05-05T01:47:55.861Z,4.03
2023-05-05T01:50:57.861Z,3.97
2023-05-05T01:54:01.893Z,3.93
2023-05-05T01:57:05.955Z,3.91
2023-05-05T02:00:08.828Z,3.88
2023-05-05T02:03:12.401Z,3.86
2023-05-05T02:06:14.933Z,3.84
2023-05-05T02:09:17.118Z,3.81
2023-05-05T02:12:24.825Z,3.78
2023-05-05T02:15:28.021Z,3.68
2023-05-05T02:18:31.209Z,3.52
2023-05-05T02:21:34.170Z,3.39
2023-05-05T02:24:36.389Z,3.29
2023-05-05T02:27:41.805Z,3.22
2023-05-05T02:30:55.992Z,3.19
2023-05-05T02:34:00.579Z,3.16
2023-05-05T02:37:07.088Z,3.10
2023-05-05T02:40:10.199Z,3.06
2023-05-05T02:43:17.081Z,3.06
2023-05-05T02:46:19.413Z,3.07
2023-05-05T02:49:21.282Z,3.08
2023-05-05T02:52:24.031Z,3.08
2023-05-05T02:55:39.896Z,3.04
2023-05-05T02:58:53.104Z,3.01
2023-05-05T03:02:08.464Z,2.99
2023-05-05T03:05:13.010Z,2.92
2023-05-05T03:08:24.645Z,2.89
2023-05-05T03:11:30.812Z,2.82
2023-05-05T03:14:37.536Z,2.77
2023-05-05T03:17:44.632Z,2.76
2023-05-05T03:20:47.339Z,2.75
2023-05-05T03:23:58.486Z,2.67
2023-05-05T03:27:00.802Z,2.61
2023-05-05T03:30:02.761Z,2.59
2023-05-05T03:33:04.727Z,2.63
2023-05-05T03:36:06.743Z,2.68
2023-05-05T03:39:09.019Z,2.76
2023-05-05T03:42:10.921Z,2.88
2023-05-05T03:45:13.200Z,2.97
2023-05-05T03:48:15.230Z,3.03
2023-05-05T03:51:17.384Z,3.11
2023-05-05T03:54:19.153Z,3.24
2023-05-05T03:57:21.103Z,3.34
2023-05-05T04:00:23.608Z,3.42
2023-05-05T04:03:26.090Z,3.51
2023-05-05T04:06:28.551Z,3.60
2023-05-05T04:09:30.774Z,3.70
2023-05-05T04:12:32.663Z,3.79
2023-05-05T04:15:35.010Z,3.87
2023-05-05T04:18:37.312Z,3.97
2023-05-05T04:21:39.260Z,4.16
2023-05-05T04:24:41.438Z,4.45
2023-05-05T04:27:43.752Z,4.75
2023-05-05T04:30:45.768Z,5.11
2023-05-05T04:33:47.444Z,5.46
2023-05-05T04:36:49.238Z,5.74
2023-05-05T04:39:51.886Z,6.07
2023-05-05T04:42:53.815Z,6.41
2023-05-05T04:45:56.043Z,6.64
2023-05-05T04:48:58.908Z,6.87
2023-05-05T04:52:00.667Z,7.03
2023-05-05T04:55:03.300Z,7.35
2023-05-05T04:58:05.622Z,7.67
2023-05-05T05:01:07.497Z,7.99
2023-05-05T05:04:09.604Z,8.11
2023-05-05T05:07:11.408Z,8.27
2023-05-05T05:10:13.384Z,8.32
2023-05-05T05:13:15.134Z,8.38
2023-05-05T05:16:17.356Z,8.57
2023-05-05T05:19:19.341Z,8.84
2023-05-05T05:22:21.103Z,9.05
2023-05-05T05:25:23.650Z,9.19
2023-05-05T05:28:25.539Z,9.31
2023-05-05T05:34:10.721Z,9.99
2023-05-05T05:37:14.332Z,10.19
2023-05-05T05:40:16.684Z,10.48
2023-05-05T05:43:18.464Z,10.94
2023-05-05T05:46:20.323Z,11.34
2023-05-05T05:49:22.263Z,11.53
2023-05-05T05:52:24.021Z,11.67
2023-05-05T05:55:26.472Z,11.85
2023-05-05T05:58:28.261Z,12.32
2023-05-05T06:01:30.111Z,12.79
2023-05-05T06:04:32.248Z,12.88
2023-05-05T06:07:34.242Z,12.86
2023-05-05T06:10:36.422Z,12.62
2023-05-05T06:13:38.649Z,12.77
2023-05-05T06:16:40.711Z,13.29
2023-05-05T06:19:42.468Z,13.78
2023-05-05T06:22:44.209Z,14.10
2023-05-05T06:25:46.236Z,13.86
2023-05-05T06:28:48.295Z,13.81
2023-05-05T06:31:50.087Z,14.11
2023-05-05T06:34:52.242Z,14.31
2023-05-05T06:37:54.036Z,14.29
2023-05-05T06:40:55.950Z,14.43
2023-05-05T06:43:57.626Z,14.48
2023-05-05T06:46:59.720Z,14.15
2023-05-05T06:50:01.877Z,13.98
2023-05-05T06:53:03.623Z,14.13
2023-05-05T06:56:05.580Z,14.49
2023-05-05T06:59:07.750Z,14.93
2023-05-05T07:02:09.592Z,15.34
2023-05-05T07:05:11.699Z,15.62
2023-05-05T07:08:13.415Z,16.04
2023-05-05T07:11:15.858Z,15.99
2023-05-05T07:14:18.657Z,16.19
2023-05-05T07:17:20.455Z,16.68
2023-05-05T07:20:22.671Z,17.20
2023-05-05T07:23:24.404Z,17.68
2023-05-05T07:26:26.347Z,18.18
2023-05-05T07:29:28.244Z,18.39
2023-05-05T07:32:30.087Z,18.91
2023-05-05T07:35:31.888Z,19.54
2023-05-05T07:38:33.591Z,20.01
2023-05-05T07:41:35.410Z,19.98
2023-05-05T07:44:37.213Z,19.78
2023-05-05T07:47:39.201Z,19.69
2023-05-05T07:50:41.222Z,19.60
2023-05-05T07:53:43.080Z,19.76
2023-05-05T07:56:45.244Z,20.14
2023-05-05T07:59:46.951Z,20.41
2023-05-05T08:02:48.898Z,20.17
2023-05-05T08:05:51.786Z,20.16
2023-05-05T08:08:54.821Z,20.54
2023-05-05T08:11:56.858Z,20.32
2023-05-05T08:14:59.055Z,20.35
2023-05-05T08:18:14.784Z,19.92
2023-05-05T08:21:17.350Z,19.82
2023-05-05T08:24:19.194Z,20.07
2023-05-05T08:27:24.900Z,20.09
2023-05-05T08:30:26.808Z,19.97
2023-05-05T08:33:28.966Z,20.07
2023-05-05T08:36:30.776Z,20.42
2023-05-05T08:39:32.771Z,20.54
2023-05-05T08:42:38.409Z,20.78
2023-05-05T08:45:44.772Z,21.69
2023-05-05T08:48:48.701Z,22.21
2023-05-05T08:51:51.030Z,22.87
2023-05-05T08:54:58.030Z,23.21
2023-05-05T08:58:00.575Z,23.29
2023-05-05T09:01:03.035Z,23.42
2023-05-05T09:04:04.995Z,23.21
2023-05-05T09:07:07.453Z,22.95
2023-05-05T09:10:10.526Z,23.27
2023-05-05T09:13:30.419Z,23.40
2023-05-05T09:16:32.251Z,24.00
2023-05-05T09:19:33.877Z,23.57
2023-05-05T09:22:45.267Z,22.89
2023-05-05T09:26:02.661Z,23.41
2023-05-05T09:29:04.883Z,23.73
2023-05-05T09:32:06.816Z,23.46
2023-05-05T09:35:08.901Z,23.42
2023-05-05T09:38:11.792Z,23.94
2023-05-05T09:41:13.848Z,24.50
2023-05-05T09:44:15.488Z,24.53
2023-05-05T09:47:26.341Z,24.39
2023-05-05T09:50:42.905Z,24.83
2023-05-05T09:53:44.615Z,25.33
2023-05-05T09:56:46.620Z,25.45
2023-05-05T09:59:58.690Z,24.58
2023-05-05T10:06:04.553Z,23.66
2023-05-05T10:09:06.179Z,23.20
2023-05-05T10:12:08.259Z,24.06
2023-05-05T10:15:11.892Z,24.77
2023-05-05T10:18:15.192Z,24.61
2023-05-05T10:21:20.420Z,24.66
2023-05-05T10:24:35.333Z,24.75
2023-05-05T10:27:43.309Z,24.16
2023-05-05T10:30:46.209Z,23.81
2023-05-05T10:33:53.323Z,23.56
2023-05-05T10:36:57.419Z,23.27
2023-05-05T10:39:59.310Z,24.13
2023-05-05T10:43:01.137Z,24.86
2023-05-05T10:46:03.345Z,25.28
2023-05-05T10:49:13.976Z,25.92
2023-05-05T10:52:26.161Z,25.72
2023-05-05T10:55:51.071Z,25.53
2023-05-05T10:58:59.797Z,25.34
2023-05-05T11:02:27.524Z,25.91
2023-05-05T11:05:30.186Z,26.55
2023-05-05T11:08:36.640Z,26.66
2023-05-05T11:12:04.589Z,27.00
2023-05-05T11:15:28.491Z,27.65
2023-05-05T11:18:31.292Z,28.33
2023-05-05T11:22:02.077Z,28.47
2023-05-05T11:25:36.741Z,27.93
2023-05-05T11:29:03.015Z,27.20
2023-05-05T11:32:14.155Z,26.95
2023-05-05T11:35:16.019Z,26.64
2023-05-05T11:38:18.446Z,26.22
2023-05-05T11:41:32.453Z,26.13
2023-05-05T11:44:34.965Z,26.15
2023-05-05T11:47:36.837Z,26.01
2023-05-05T11:50:38.732Z,25.65
2023-05-05T11:53:44.951Z,25.57
2023-05-05T11:56:54.341Z,25.68
2023-05-05T12:00:05.538Z,26.00
2023-05-05T12:03:07.643Z,26.37
2023-05-05T12:06:10.071Z,26.49
2023-05-05T12:09:19.521Z,26.67
2023-05-05T12:12:21.891Z,27.06
2023-05-05T12:15:32.916Z,27.37
2023-05-05T12:18:35.087Z,27.78
2023-05-05T12:21:36.974Z,28.06
2023-05-05T12:24:38.668Z,27.58
2023-05-05T12:27:40.352Z,26.95
2023-05-05T12:30:42.038Z,26.99
2023-05-05T12:33:44.121Z,27.47
2023-05-05T12:36:45.886Z,27.89
2023-05-05T12:39:48.747Z,28.17
2023-05-05T12:42:50.453Z,28.63
2023-05-05T12:46:12.387Z,28.92
2023-05-05T12:49:14.763Z,28.99
2023-05-05T12:52:16.591Z,29.21
2023-05-05T12:55:18.572Z,29.26
2023-05-05T12:58:20.199Z,29.53
2023-05-05T13:01:21.986Z,29.69
2023-05-05T13:04:25.324Z,30.01
2023-05-05T13:07:26.907Z,30.27
2023-05-05T13:10:28.500Z,30.26
2023-05-05T13:13:32.137Z,30.44
2023-05-05T13:16:34.204Z,30.70
2023-05-05T13:19:36.006Z,30.76
2023-05-05T13:22:38.671Z,30.73
2023-05-05T13:25:40.746Z,30.64
2023-05-05T13:28:42.436Z,30.44
2023-05-05T13:31:44.948Z,30.49
2023-05-05T13:34:47.428Z,30.75
2023-05-05T13:37:49.257Z,30.49
2023-05-05T13:40:51.136Z,30.33
2023-05-05T13:43:53.108Z,30.49
2023-05-05T13:46:55.023Z,30.55
2023-05-05T13:49:56.856Z,30.67
2023-05-05T13:52:58.804Z,30.68
2023-05-05T13:56:01.041Z,30.24
2023-05-05T13:59:02.778Z,30.30
2023-05-05T14:02:04.419Z,30.37
2023-05-05T14:05:06.938Z,30.03
2023-05-05T14:08:09.799Z,30.60
2023-05-05T14:11:11.534Z,31.58
2023-05-05T14:14:13.495Z,32.44
2023-05-05T14:17:15.128Z,32.00
2023-05-05T14:20:16.822Z,31.98
2023-05-05T14:23:18.605Z,32.41
2023-05-05T14:26:20.544Z,33.06
2023-05-05T14:29:22.234Z,33.58
2023-05-05T14:32:24.714Z,34.12
2023-05-05T14:35:26.815Z,34.12
2023-05-05T14:38:28.888Z,34.15
2023-05-05T14:41:30.648Z,34.68
2023-05-05T14:44:32.365Z,35.12
2023-05-05T14:47:34.538Z,34.99
2023-05-05T14:50:36.505Z,34.61
2023-05-05T14:53:38.863Z,34.94
2023-05-05T14:56:40.938Z,34.60
2023-05-05T14:59:42.528Z,34.23
2023-05-05T15:02:44.422Z,33.16
2023-05-05T15:05:46.355Z,31.44
2023-05-05T15:08:48.219Z,30.09
2023-05-05T15:11:50.088Z,29.40
2023-05-05T15:14:51.909Z,29.13
2023-05-05T15:17:53.582Z,28.86
2023-05-05T15:20:55.251Z,28.44
2023-05-05T15:23:56.916Z,28.02
2023-05-05T15:26:58.882Z,27.57
2023-05-05T15:30:00.583Z,27.40
2023-05-05T15:33:02.693Z,27.04
2023-05-05T15:36:04.964Z,26.38
2023-05-05T15:39:06.693Z,25.89
2023-05-05T15:42:08.331Z,25.53
2023-05-05T15:45:10.811Z,25.13
2023-05-05T15:48:12.873Z,24.60
2023-05-05T15:51:14.594Z,24.14
2023-05-05T15:54:16.262Z,23.84
2023-05-05T15:57:18.238Z,23.55
2023-05-05T16:00:20.325Z,23.28
2023-05-05T16:03:22.130Z,23.05
2023-05-05T16:06:24.229Z,22.76
2023-05-05T16:09:26.201Z,22.51
2023-05-05T16:12:28.118Z,22.30
2023-05-05T16:15:29.821Z,22.05
2023-05-05T16:18:31.687Z,21.59
2023-05-05T16:21:33.315Z,21.29
2023-05-05T16:24:35.054Z,21.15
2023-05-05T16:27:36.785Z,21.02
2023-05-05T16:30:38.462Z,20.87
2023-05-05T16:33:40.390Z,20.73
2023-05-05T16:36:44.156Z,20.59
2023-05-05T16:39:46.273Z,20.43
2023-05-05T16:42:48.236Z,20.28
2023-05-05T16:45:50.054Z,20.05
2023-05-05T16:48:51.789Z,19.75
2023-05-05T16:51:53.567Z,19.32
2023-05-05T16:54:55.234Z,18.97
2023-05-05T16:57:56.961Z,18.70
2023-05-05T17:00:58.727Z,18.39
2023-05-05T17:04:00.884Z,18.09
2023-05-05T17:07:02.508Z,17.80
2023-05-05T17:10:04.563Z,18.15
2023-05-05T17:13:08.504Z,18.98
2023-05-05T17:16:10.315Z,19.96
2023-05-05T17:19:12.004Z,20.23
2023-05-05T17:22:13.699Z,19.84
2023-05-05T17:25:15.737Z,19.22
2023-05-05T17:28:17.342Z,18.66
2023-05-05T17:31:19.094Z,18.19
2023-05-05T17:34:21.133Z,17.75
2023-05-05T17:37:23.248Z,17.33
2023-05-05T17:40:25.164Z,16.95
2023-05-05T17:43:27.239Z,16.60
2023-05-05T17:46:29.016Z,16.26
2023-05-05T17:49:30.993Z,15.99
2023-05-05T17:52:33.087Z,15.71
2023-05-05T17:55:35.324Z,15.43
2023-05-05T17:58:37.417Z,15.15
2023-05-05T18:01:39.324Z,14.87
2023-05-05T18:04:41.442Z,14.58
2023-05-05T18:07:47.386Z,14.35
2023-05-05T18:10:49.349Z,14.12
2023-05-05T18:13:51.285Z,13.92
2023-05-05T18:16:53.274Z,13.74
2023-05-05T18:19:58.449Z,13.55
2023-05-05T18:23:00.740Z,13.36
2023-05-05T18:26:02.912Z,13.19
2023-05-05T18:29:08.077Z,13.01
2023-05-05T18:32:10.439Z,12.85
2023-05-05T18:35:12.473Z,12.70
2023-05-05T18:38:14.999Z,12.58
2023-05-05T18:41:17.028Z,12.46
2023-05-05T18:44:19.216Z,12.32
2023-05-05T18:47:23.399Z,12.23
2023-05-05T18:50:25.232Z,12.17
2023-05-05T18:53:27.530Z,12.07
2023-05-05T18:56:29.544Z,12.00
2023-05-05T18:59:31.529Z,11.97
2023-05-05T19:02:33.700Z,11.91
2023-05-05T19:05:35.917Z,11.81
2023-05-05T19:08:38.495Z,11.57
2023-05-05T19:11:40.875Z,11.11
2023-05-05T19:14:42.701Z,10.61
2023-05-05T19:17:44.627Z,10.32
2023-05-05T19:20:46.676Z,10.10
2023-05-05T19:23:58.334Z,9.95
2023-05-05T19:27:03.192Z,9.85
2023-05-05T19:30:09.204Z,9.79
2023-05-05T19:33:14.934Z,9.74
2023-05-05T19:36:16.699Z,9.73
2023-05-05T19:39:18.749Z,9.79
2023-05-05T19:42:23.081Z,9.83
2023-05-05T19:45:36.466Z,9.92
2023-05-05T19:48:38.663Z,9.93
2023-05-05T19:51:41.682Z,9.91
2023-05-05T19:54:43.603Z,9.91
2023-05-05T19:57:46.272Z,9.86
2023-05-05T20:00:55.655Z,9.81
2023-05-05T20:03:57.605Z,9.84
2023-05-05T20:07:12.361Z,9.82
2023-05-05T20:10:14.401Z,9.76
2023-05-05T20:13:16.571Z,9.67
2023-05-05T20:16:26.391Z,9.52
2023-05-05T20:19:50.541Z,9.38
2023-05-05T20:22:52.787Z,9.24
2023-05-05T20:25:57.253Z,9.15
2023-05-05T20:28:59.826Z,9.04
2023-05-05T20:32:05.473Z,8.96
2023-05-05T20:35:09.947Z,8.90
2023-05-05T20:38:21.093Z,8.82
2023-05-05T20:41:25.534Z,8.75
2023-05-05T20:44:38.685Z,8.72
2023-05-05T20:47:46.266Z,8.70
2023-05-05T20:50:58.863Z,8.82
2023-05-05T20:54:04.147Z,8.95
2023-05-05T20:57:08.938Z,9.10
2023-05-05T21:00:20.047Z,9.25
2023-05-05T21:03:27.995Z,9.44
2023-05-05T21:07:10.364Z,9.57
2023-05-05T21:10:15.771Z,9.71
2023-05-05T21:13:24.112Z,9.73
2023-05-05T21:16:31.203Z,9.72
2023-05-05T21:19:46.926Z,9.73
2023-05-05T21:22:51.286Z,9.74
2023-05-05T21:25:55.967Z,9.73
2023-05-05T21:28:57.980Z,9.74
2023-05-05T21:32:00.278Z,9.75
2023-05-05T21:35:22.563Z,9.77
2023-05-05T21:38:24.422Z,9.79
2023-05-05T21:41:33.871Z,9.80
2023-05-05T21:44:56.813Z,9.83
2023-05-05T21:48:12.523Z,9.83
2023-05-05T21:51:22.020Z,9.85
2023-05-05T21:54:24.444Z,9.88
2023-05-05T21:57:29.511Z,9.87
2023-05-05T22:00:31.383Z,9.85
2023-05-05T22:03:36.375Z,9.83
2023-05-05T22:06:41.074Z,9.78
2023-05-05T22:09:43.676Z,9.74
2023-05-05T22:12:45.999Z,9.71
2023-05-05T22:15:48.047Z,9.68
2023-05-05T22:18:57.564Z,9.66
2023-05-05T22:21:59.646Z,9.66
2023-05-05T22:25:01.492Z,9.62
2023-05-05T22:28:03.911Z,9.60
2023-05-05T22:31:06.320Z,9.60
2023-05-05T22:34:11.441Z,9.61
2023-05-05T22:37:14.209Z,9.61
2023-05-05T22:40:16.643Z,9.58
2023-05-05T22:43:18.821Z,9.55
2023-05-05T22:46:21.072Z,9.50
2023-05-05T22:49:25.897Z,9.45
2023-05-05T22:54:26.326Z,9.40
2023-05-05T22:57:28.352Z,9.32
2023-05-05T23:00:30.540Z,9.26
2023-05-05T23:03:32.859Z,9.18
2023-05-05T23:06:48.153Z,9.10
2023-05-05T23:09:50.482Z,9.04
2023-05-05T23:12:56.075Z,8.95
2023-05-05T23:15:58.358Z,8.87
2023-05-05T23:19:00.442Z,8.81
2023-05-05T23:22:02.714Z,8.75
2023-05-05T23:25:05.146Z,8.70
2023-05-05T23:28:17.002Z,8.65
2023-05-05T23:31:19.168Z,8.58
2023-05-05T23:34:23.783Z,8.52
2023-05-05T23:37:29.683Z,8.47
2023-05-05T23:41:24.563Z,8.40
2023-05-05T23:44:30.038Z,8.35
2023-05-05T23:47:41.381Z,8.30
2023-05-05T23:50:46.422Z,8.25
2023-05-05T23:53:52.166Z,8.21
2023-05-05T23:56:54.771Z,8.14
2023-05-05T23:59:56.803Z,8.08
